createdAt,value
2017-12-10T00:01:30.770Z,99871.55
2017-12-10T00:03:57.564Z,99873.23
2017-12-10T00:06:25.226Z,99869.84
2017-12-10T00:08:52.041Z,99866.84
2017-12-10T00:11:18.861Z,99850.54
2017-12-10T00:13:46.441Z,99849.65
2017-12-10T00:16:14.054Z,99836.38
2017-12-10T00:18:40.962Z,99837.68
2017-12-10T00:21:07.806Z,99828.94
2017-12-10T00:23:34.679Z,99821.67
2017-12-10T00:26:01.568Z,99815.83
2017-12-10T00:28:29.157Z,99806.36
2017-12-10T00:30:56.108Z,99805.24
2017-12-10T00:33:23.766Z,99805.44
2017-12-10T00:35:50.738Z,99793.84
2017-12-10T00:38:18.356Z,99787.83
2017-12-10T00:40:45.313Z,99789.98
2017-12-10T00:43:12.278Z,99781.05
2017-12-10T00:45:39.120Z,99778.99
2017-12-10T00:48:06.739Z,99769.38
2017-12-10T00:50:33.606Z,99770.57
2017-12-10T00:53:00.444Z,99757.66
2017-12-10T00:55:27.309Z,99752.15
2017-12-10T00:57:54.165Z,99751.27
2017-12-10T01:00:21.188Z,99742.28
2017-12-10T01:02:48.696Z,99735.84
2017-12-10T01:05:15.563Z,99730.23
2017-12-10T01:07:42.432Z,99730.21
2017-12-10T01:10:09.283Z,99719.20
2017-12-10T01:12:36.147Z,99723.24
2017-12-10T01:15:03.065Z,99715.32
2017-12-10T01:17:29.921Z,99717.83
2017-12-10T01:19:56.886Z,99713.98
2017-12-10T01:22:25.417Z,99710.08
2017-12-10T01:24:54.522Z,99709.13
2017-12-10T01:27:22.575Z,99710.81
2017-12-10T01:29:49.505Z,99695.22
2017-12-10T01:32:16.343Z,99688.91
2017-12-10T01:34:43.955Z,99690.04
2017-12-10T01:37:11.854Z,99680.13
2017-12-10T01:39:39.148Z,99672.22
2017-12-10T01:42:05.984Z,99667.84
2017-12-10T01:44:33.810Z,99661.05
2017-12-10T01:47:00.825Z,99648.86
2017-12-10T01:49:27.733Z,99649.73
2017-12-10T01:51:55.421Z,99647.84
2017-12-10T01:54:25.665Z,99642.84
2017-12-10T01:56:54.251Z,99629.57
2017-12-10T01:59:23.858Z,99628.98
2017-12-10T02:01:53.259Z,99624.67
2017-12-10T02:04:20.232Z,99619.37
2017-12-10T02:06:47.086Z,99612.28
2017-12-10T02:09:14.239Z,99601.84
2017-12-10T02:11:41.153Z,99595.00
2017-12-10T02:14:08.941Z,99596.66
2017-12-10T02:16:38.874Z,99587.75
2017-12-10T02:19:06.388Z,99578.70
2017-12-10T02:21:33.216Z,99570.83
2017-12-10T02:24:00.836Z,99563.81
2017-12-10T02:26:27.680Z,99549.31
2017-12-10T02:28:54.516Z,99550.09
2017-12-10T02:31:21.776Z,99549.08
2017-12-10T02:33:48.691Z,99532.23
2017-12-10T02:36:15.547Z,99523.22
2017-12-10T02:38:42.404Z,99524.20
2017-12-10T02:41:09.254Z,99517.39
2017-12-10T02:43:36.123Z,99508.38
2017-12-10T02:46:03.020Z,99503.06
2017-12-10T02:48:29.903Z,99508.86
2017-12-10T02:50:56.752Z,99498.80
2017-12-10T02:53:23.596Z,99501.28
2017-12-10T02:55:50.436Z,99490.13
2017-12-10T02:58:17.303Z,99478.83
2017-12-10T03:00:44.148Z,99479.76
2017-12-10T03:03:10.992Z,99469.20
2017-12-10T03:05:38.630Z,99476.03
2017-12-10T03:08:05.455Z,99464.93
2017-12-10T03:10:32.355Z,99463.30
2017-12-10T03:12:59.218Z,99461.31
2017-12-10T03:15:26.033Z,99451.48
2017-12-10T03:17:52.881Z,99453.49
2017-12-10T03:20:19.737Z,99440.48
2017-12-10T03:22:47.338Z,99433.70
2017-12-10T03:25:14.204Z,99417.27
2017-12-10T03:27:41.034Z,99423.85
2017-12-10T03:30:07.910Z,99406.26
2017-12-10T03:32:35.473Z,99399.03
2017-12-10T03:35:02.306Z,99388.33
2017-12-10T03:37:29.138Z,99381.88
2017-12-10T03:39:55.964Z,99366.11
2017-12-10T03:42:22.796Z,99360.04
2017-12-10T03:44:49.628Z,99341.80
2017-12-10T03:47:16.483Z,99338.34
2017-12-10T03:49:43.331Z,99332.99
2017-12-10T03:52:10.207Z,99338.00
2017-12-10T03:54:37.030Z,99329.96
2017-12-10T03:57:04.612Z,99323.03
2017-12-10T03:59:32.182Z,99317.20
2017-12-10T04:01:59.023Z,99318.75
2017-12-10T04:04:25.855Z,99319.31
2017-12-10T04:06:52.688Z,99301.67
2017-12-10T04:09:19.522Z,99295.88
2017-12-10T04:11:46.367Z,99287.22
2017-12-10T04:14:13.205Z,99282.39
2017-12-10T04:16:40.092Z,99280.19
2017-12-10T04:19:06.935Z,99282.45
2017-12-10T04:21:33.770Z,99277.92
2017-12-10T04:24:00.638Z,99264.00
2017-12-10T04:26:27.474Z,99259.19
2017-12-10T04:28:54.277Z,99254.69
2017-12-10T04:31:21.086Z,99246.05
2017-12-10T04:33:48.653Z,99251.19
2017-12-10T04:36:15.484Z,99239.67
2017-12-10T04:38:42.297Z,99241.06
2017-12-10T04:41:09.129Z,99233.97
2017-12-10T04:43:35.967Z,99228.97
2017-12-10T04:46:02.834Z,99233.13
2017-12-10T04:48:29.689Z,99218.48
2017-12-10T04:50:56.531Z,99219.29
2017-12-10T04:53:23.374Z,99207.94
2017-12-10T04:55:50.187Z,99197.36
2017-12-10T04:58:16.985Z,99186.08
2017-12-10T05:00:43.837Z,99174.63
2017-12-10T05:03:11.397Z,99169.96
2017-12-10T05:05:38.253Z,99157.97
2017-12-10T05:08:05.110Z,99152.87
2017-12-10T05:10:31.978Z,99153.72
2017-12-10T05:12:58.806Z,99142.56
2017-12-10T05:15:25.681Z,99127.72
2017-12-10T05:17:52.521Z,99127.02
2017-12-10T05:20:19.313Z,99111.81
2017-12-10T05:22:46.130Z,99099.22
2017-12-10T05:25:12.994Z,99091.86
2017-12-10T05:27:39.848Z,99086.11
2017-12-10T05:30:06.687Z,99073.00
2017-12-10T05:32:34.245Z,99060.35
2017-12-10T05:35:01.029Z,99061.08
2017-12-10T05:37:27.850Z,99044.63
2017-12-10T05:39:54.672Z,99038.67
2017-12-10T05:42:21.461Z,99023.09
2017-12-10T05:44:48.277Z,99012.97
2017-12-10T05:47:15.111Z,99004.47
2017-12-10T05:49:42.030Z,98986.16
2017-12-10T05:52:08.853Z,98976.56
2017-12-10T05:54:36.460Z,98963.63
2017-12-10T05:57:03.280Z,98949.34
2017-12-10T05:59:30.820Z,98954.53
2017-12-10T06:01:57.688Z,98946.88
2017-12-10T06:04:24.515Z,98944.13
2017-12-10T06:06:51.322Z,98940.59
2017-12-10T06:09:18.132Z,98931.65
2017-12-10T06:11:44.958Z,98922.09
2017-12-10T06:14:11.772Z,98915.86
2017-12-10T06:16:38.610Z,98903.34
2017-12-10T06:19:05.444Z,98893.26
2017-12-10T06:21:33.078Z,98889.38
2017-12-10T06:23:59.908Z,98884.59
2017-12-10T06:26:26.746Z,98878.61
2017-12-10T06:28:54.313Z,98859.66
2017-12-10T06:31:21.139Z,98855.75
2017-12-10T06:33:47.982Z,98854.15
2017-12-10T06:36:14.802Z,98843.45
2017-12-10T06:38:42.362Z,98837.38
2017-12-10T06:41:09.181Z,98831.59
2017-12-10T06:43:36.013Z,98828.54
2017-12-10T06:46:03.684Z,98815.88
2017-12-10T06:48:30.502Z,98817.52
2017-12-10T06:50:57.401Z,98812.08
2017-12-10T06:53:24.234Z,98802.34
2017-12-10T06:55:51.086Z,98808.16
2017-12-10T06:58:17.937Z,98804.25
2017-12-10T07:00:44.941Z,98807.98
2017-12-10T07:03:11.815Z,98799.57
2017-12-10T07:05:39.383Z,98790.22
2017-12-10T07:08:06.219Z,98788.94
2017-12-10T07:10:33.070Z,98771.09
2017-12-10T07:12:59.896Z,98761.34
2017-12-10T07:15:26.720Z,98756.25
2017-12-10T07:17:53.579Z,98754.26
2017-12-10T07:20:20.406Z,98739.09
2017-12-10T07:22:47.251Z,98725.55
2017-12-10T07:25:14.106Z,98710.36
2017-12-10T07:27:40.935Z,98696.91
2017-12-10T07:30:07.765Z,98674.87
2017-12-10T07:32:34.624Z,98659.54
2017-12-10T07:35:01.483Z,98655.36
2017-12-10T07:37:28.297Z,98641.71
2017-12-10T07:39:55.865Z,98627.41
2017-12-10T07:42:23.423Z,98603.69
2017-12-10T07:44:50.250Z,98605.61
2017-12-10T07:47:17.116Z,98591.11
2017-12-10T07:49:43.979Z,98582.20
2017-12-10T07:52:10.816Z,98579.33
2017-12-10T07:54:37.731Z,98558.88
2017-12-10T07:57:04.551Z,98555.81
2017-12-10T07:59:31.427Z,98544.45
2017-12-10T08:01:58.233Z,98539.58
2017-12-10T08:04:25.870Z,98527.63
2017-12-10T08:06:52.748Z,98514.95
2017-12-10T08:09:19.519Z,98504.84
2017-12-10T08:11:46.377Z,98498.34
2017-12-10T08:14:13.253Z,98482.86
2017-12-10T08:16:40.842Z,98479.45
2017-12-10T08:19:07.688Z,98468.72
2017-12-10T08:21:34.598Z,98454.80
2017-12-10T08:24:01.469Z,98448.02
2017-12-10T08:26:28.322Z,98446.98
2017-12-10T08:28:55.158Z,98437.97
2017-12-10T08:31:22.020Z,98424.08
2017-12-10T08:33:48.924Z,98417.79
2017-12-10T08:36:15.740Z,98421.24
2017-12-10T08:38:42.548Z,98405.54
2017-12-10T08:41:09.420Z,98396.37
2017-12-10T08:43:36.273Z,98393.21
2017-12-10T08:46:03.078Z,98358.50
2017-12-10T08:48:30.641Z,98360.69
2017-12-10T08:50:58.195Z,98350.03
2017-12-10T08:53:25.037Z,98342.22
2017-12-10T08:55:51.890Z,98340.92
2017-12-10T08:58:18.713Z,98333.47
2017-12-10T09:00:45.614Z,98306.91
2017-12-10T09:03:12.824Z,98276.81
2017-12-10T09:05:40.538Z,98282.50
2017-12-10T09:08:08.109Z,98275.39
2017-12-10T09:10:35.674Z,98255.36
2017-12-10T09:13:03.242Z,98234.50
2017-12-10T09:15:30.108Z,98227.91
2017-12-10T09:17:57.721Z,98210.44
2017-12-10T09:20:24.550Z,98197.00
2017-12-10T09:22:52.107Z,98177.57
2017-12-10T09:25:18.971Z,98174.11
2017-12-10T09:27:45.834Z,98154.40
2017-12-10T09:30:12.898Z,98148.30
2017-12-10T09:32:39.729Z,98140.77
2017-12-10T09:35:06.558Z,98145.80
2017-12-10T09:37:33.393Z,98129.02
2017-12-10T09:40:00.216Z,98126.59
2017-12-10T09:42:27.054Z,98128.42
2017-12-10T09:44:53.908Z,98107.53
2017-12-10T09:47:20.735Z,98094.97
2017-12-10T09:49:47.538Z,98088.52
2017-12-10T09:52:14.344Z,98074.98
2017-12-10T09:54:41.168Z,98060.31
2017-12-10T09:57:08.049Z,98032.98
2017-12-10T09:59:34.861Z,98026.89
2017-12-10T10:02:01.748Z,98025.98
2017-12-10T10:04:29.312Z,98006.09
2017-12-10T10:06:56.156Z,98000.46
2017-12-10T10:09:23.723Z,98006.33
2017-12-10T10:11:51.312Z,97988.52
2017-12-10T10:14:18.886Z,97968.09
2017-12-10T10:16:46.454Z,97953.25
2017-12-10T10:19:14.033Z,97938.47
2017-12-10T10:21:41.619Z,97936.03
2017-12-10T10:24:09.454Z,97918.86
2017-12-10T10:26:36.373Z,97915.17
2017-12-10T10:29:03.243Z,97898.71
2017-12-10T10:31:30.058Z,97883.94
2017-12-10T10:33:56.887Z,97874.41
2017-12-10T10:36:23.753Z,97860.61
2017-12-10T10:38:50.607Z,97833.63
2017-12-10T10:41:17.450Z,97818.81
2017-12-10T10:43:44.278Z,97801.80
2017-12-10T10:46:11.939Z,97792.86
2017-12-10T10:48:38.728Z,97769.92
2017-12-10T10:51:06.350Z,97746.64
2017-12-10T10:53:33.199Z,97724.69
2017-12-10T10:56:00.018Z,97695.75
2017-12-10T10:58:26.856Z,97671.59
2017-12-10T11:00:53.750Z,97654.77
2017-12-10T11:03:21.307Z,97646.51
2017-12-10T11:05:48.187Z,97617.56
2017-12-10T11:08:15.039Z,97600.85
2017-12-10T11:10:41.874Z,97592.22
2017-12-10T11:13:08.736Z,97576.25
2017-12-10T11:15:35.612Z,97557.44
2017-12-10T11:18:02.443Z,97551.20
2017-12-10T11:20:30.007Z,97548.53
2017-12-10T11:22:56.859Z,97540.73
2017-12-10T11:25:23.702Z,97535.52
2017-12-10T11:27:50.549Z,97525.59
2017-12-10T11:30:17.383Z,97505.88
2017-12-10T11:32:44.228Z,97499.14
2017-12-10T11:35:11.056Z,97488.66
2017-12-10T11:37:37.884Z,97481.41
2017-12-10T11:40:05.693Z,97459.91
2017-12-10T11:42:32.567Z,97442.01
2017-12-10T11:44:59.428Z,97427.72
2017-12-10T11:47:26.263Z,97404.92
2017-12-10T11:49:53.110Z,97382.61
2017-12-10T11:52:19.972Z,97379.94
2017-12-10T11:54:46.810Z,97375.05
2017-12-10T11:57:13.749Z,97379.56
2017-12-10T11:59:41.310Z,97371.06
2017-12-10T12:02:08.879Z,97362.56
2017-12-10T12:04:36.496Z,97362.56
2017-12-10T12:07:03.443Z,97361.88
2017-12-10T12:09:30.417Z,97356.52
2017-12-10T12:11:57.262Z,97339.34
2017-12-10T12:14:24.097Z,97334.64
2017-12-10T12:16:52.500Z,97329.71
2017-12-10T12:19:20.148Z,97315.09
2017-12-10T12:21:46.962Z,97307.91
2017-12-10T12:24:13.822Z,97299.75
2017-12-10T12:26:40.896Z,97283.66
2017-12-10T12:29:08.161Z,97313.06
2017-12-10T12:31:35.002Z,97283.66
2017-12-10T12:34:02.642Z,97282.44
2017-12-10T12:36:29.508Z,97281.70
2017-12-10T12:38:56.351Z,97280.03
2017-12-10T12:41:23.445Z,97258.05
2017-12-10T12:43:50.388Z,97258.26
2017-12-10T12:46:17.295Z,97243.63
2017-12-10T12:48:44.878Z,97240.84
2017-12-10T12:51:12.551Z,97226.30
2017-12-10T12:53:40.145Z,97201.41
2017-12-10T12:56:07.349Z,97189.56
2017-12-10T12:58:34.240Z,97162.17
2017-12-10T13:01:01.161Z,97167.22
2017-12-10T13:03:29.532Z,97149.08
2017-12-10T13:05:57.100Z,97139.05
2017-12-10T13:08:25.755Z,97121.27
2017-12-10T13:10:55.396Z,97135.28
2017-12-10T13:13:23.251Z,97142.84
2017-12-10T13:15:50.431Z,97124.02
2017-12-10T13:18:17.830Z,97122.39
2017-12-10T13:20:45.222Z,97111.59
2017-12-10T13:23:14.022Z,97107.72
2017-12-10T13:25:42.690Z,97109.11
2017-12-10T13:28:10.953Z,97064.31
2017-12-10T13:30:37.856Z,97001.78
2017-12-10T13:33:04.987Z,97012.42
2017-12-10T13:35:32.323Z,97023.14
2017-12-10T13:37:59.251Z,97032.44
2017-12-10T13:40:26.230Z,97013.66
2017-12-10T13:42:54.813Z,96977.66
2017-12-10T13:45:21.739Z,96969.58
2017-12-10T13:47:48.581Z,96961.48
2017-12-10T13:50:16.154Z,96973.20
2017-12-10T13:52:43.185Z,96972.63
2017-12-10T13:55:10.104Z,96957.17
2017-12-10T13:57:37.691Z,96929.72
2017-12-10T14:00:05.231Z,96943.64
2017-12-10T14:02:32.832Z,96931.61
2017-12-10T14:05:00.427Z,96887.57
2017-12-10T14:07:27.283Z,96918.44
2017-12-10T14:09:54.325Z,96937.86
2017-12-10T14:12:21.258Z,96913.41
2017-12-10T14:14:48.069Z,96911.86
2017-12-10T14:17:15.672Z,96891.05
2017-12-10T14:19:42.535Z,96902.00
2017-12-10T14:22:09.395Z,96897.68
2017-12-10T14:24:36.370Z,96871.97
2017-12-10T14:27:03.240Z,96885.27
2017-12-10T14:29:30.093Z,96864.53
2017-12-10T14:31:56.943Z,96866.30
2017-12-10T14:34:24.114Z,96853.83
2017-12-10T14:36:50.942Z,96852.70
2017-12-10T14:39:18.582Z,96842.47
2017-12-10T14:41:46.777Z,96840.95
2017-12-10T14:44:14.428Z,96830.89
2017-12-10T14:46:41.376Z,96836.44
2017-12-10T14:49:08.247Z,96831.15
2017-12-10T14:51:35.064Z,96827.20
2017-12-10T14:54:02.083Z,96811.75
2017-12-10T14:56:29.058Z,96804.98
2017-12-10T14:58:55.941Z,96801.75
2017-12-10T15:01:22.828Z,96796.80
2017-12-10T15:03:50.584Z,96793.08
2017-12-10T15:06:17.451Z,96794.11
2017-12-10T15:08:44.312Z,96798.27
2017-12-10T15:11:11.246Z,96804.58
2017-12-10T15:13:38.207Z,96804.53
2017-12-10T15:16:05.109Z,96808.61
2017-12-10T15:18:31.973Z,96807.47
2017-12-10T15:20:58.819Z,96800.70
2017-12-10T15:23:36.830Z,96801.46
2017-12-10T15:26:03.869Z,96793.18
2017-12-10T15:28:30.823Z,96807.92
2017-12-10T15:30:57.662Z,96811.98
2017-12-10T15:33:25.411Z,96809.53
2017-12-10T15:35:52.822Z,96816.52
2017-12-10T15:38:20.527Z,96800.95
2017-12-10T15:40:48.937Z,96789.54
2017-12-10T15:43:16.960Z,96797.34
2017-12-10T15:45:45.611Z,96792.02
2017-12-10T15:48:14.827Z,96793.63
2017-12-10T15:50:44.468Z,96778.88
2017-12-10T15:53:13.018Z,96772.32
2017-12-10T15:55:41.987Z,96771.45
2017-12-10T15:58:10.878Z,96766.53
2017-12-10T16:00:39.831Z,96741.84
2017-12-10T16:03:09.589Z,96738.63
2017-12-10T16:05:38.217Z,96740.16
2017-12-10T16:08:05.371Z,96742.64
2017-12-10T16:10:34.277Z,96744.16
2017-12-10T16:13:03.217Z,96750.56
2017-12-10T16:15:31.907Z,96737.23
2017-12-10T16:18:02.599Z,96737.36
2017-12-10T16:20:32.351Z,96744.08
2017-12-10T16:23:01.343Z,96728.02
2017-12-10T16:25:29.624Z,96737.69
2017-12-10T16:27:59.899Z,96739.19
2017-12-10T16:30:29.511Z,96728.64
2017-12-10T16:32:58.361Z,96724.95
2017-12-10T16:35:27.343Z,96719.59
2017-12-10T16:37:56.986Z,96729.92
2017-12-10T16:40:26.102Z,96718.58
2017-12-10T16:42:56.434Z,96714.13
2017-12-10T16:45:25.792Z,96717.24
2017-12-10T16:47:54.757Z,96707.89
2017-12-10T16:50:24.980Z,96713.88
2017-12-10T16:52:54.949Z,96712.16
2017-12-10T16:55:24.198Z,96707.34
2017-12-10T16:57:53.445Z,96706.33
2017-12-10T17:00:23.375Z,96710.44
2017-12-10T17:02:52.479Z,96707.28
2017-12-10T17:05:21.673Z,96697.11
2017-12-10T17:07:51.651Z,96696.62
2017-12-10T17:10:21.601Z,96703.09
2017-12-10T17:12:50.798Z,96689.36
2017-12-10T17:15:20.686Z,96688.59
2017-12-10T17:17:49.757Z,96695.97
2017-12-10T17:20:18.792Z,96693.30
2017-12-10T17:22:47.721Z,96681.06
2017-12-10T17:25:17.363Z,96686.41
2017-12-10T17:27:46.382Z,96677.41
2017-12-10T17:30:16.288Z,96673.09
2017-12-10T17:32:45.240Z,96669.59
2017-12-10T17:35:14.396Z,96670.45
2017-12-10T17:37:43.398Z,96673.48
2017-12-10T17:40:12.392Z,96668.90
2017-12-10T17:42:42.546Z,96660.70
2017-12-10T17:45:11.567Z,96658.45
2017-12-10T17:47:40.272Z,96647.25
2017-12-10T17:50:09.464Z,96647.13
2017-12-10T17:52:38.489Z,96651.66
2017-12-10T17:55:07.642Z,96645.53
2017-12-10T17:57:36.611Z,96624.91
2017-12-10T18:00:05.488Z,96632.00
2017-12-10T18:02:35.220Z,96644.20
2017-12-10T18:05:04.929Z,96631.09
2017-12-10T18:07:33.860Z,96611.07
2017-12-10T18:10:02.963Z,96640.56
2017-12-10T18:12:32.752Z,96631.14
2017-12-10T18:15:01.733Z,96629.36
2017-12-10T18:17:30.668Z,96641.96
2017-12-10T18:19:59.626Z,96649.41
2017-12-10T18:22:29.374Z,96648.03
2017-12-10T18:24:59.321Z,96643.47
2017-12-10T18:27:28.369Z,96652.73
2017-12-10T18:29:56.821Z,96661.05
2017-12-10T18:32:25.703Z,96662.14
2017-12-10T18:34:54.308Z,96675.99
2017-12-10T18:37:23.894Z,96668.69
2017-12-10T18:39:51.691Z,96673.13
2017-12-10T18:42:20.664Z,96667.88
2017-12-10T18:44:49.856Z,96668.55
2017-12-10T18:47:18.658Z,96674.83
2017-12-10T18:49:47.512Z,96672.15
2017-12-10T18:52:16.897Z,96660.69
2017-12-10T18:54:45.989Z,96679.87
2017-12-10T18:57:15.211Z,96668.23
2017-12-10T18:59:44.204Z,96655.14
2017-12-10T19:02:13.199Z,96672.48
2017-12-10T19:04:42.039Z,96683.08
2017-12-10T19:07:11.938Z,96663.55
2017-12-10T19:09:40.920Z,96655.46
2017-12-10T19:12:09.838Z,96660.66
2017-12-10T19:14:38.783Z,96640.34
2017-12-10T19:17:07.933Z,96664.92
2017-12-10T19:19:37.060Z,96662.05
2017-12-10T19:22:06.115Z,96667.37
2017-12-10T19:24:36.645Z,96650.87
2017-12-10T19:27:05.572Z,96648.73
2017-12-10T19:29:34.413Z,96670.77
2017-12-10T19:32:03.459Z,96653.55
2017-12-10T19:34:32.176Z,96664.34
2017-12-10T19:37:01.224Z,96656.50
2017-12-10T19:39:30.098Z,96668.84
2017-12-10T19:41:59.273Z,96683.08
2017-12-10T19:44:29.273Z,96693.54
2017-12-10T19:46:59.123Z,96692.13
2017-12-10T19:49:28.343Z,96690.40
2017-12-10T19:51:57.311Z,96702.86
2017-12-10T19:54:26.336Z,96700.66
2017-12-10T19:56:56.100Z,96689.71
2017-12-10T19:59:25.186Z,96690.28
2017-12-10T20:01:54.793Z,96694.47
2017-12-10T20:04:24.343Z,96681.98
2017-12-10T20:06:54.327Z,96680.70
2017-12-10T20:09:24.297Z,96690.51
2017-12-10T20:11:53.371Z,96701.08
2017-12-10T20:14:23.160Z,96669.10
2017-12-10T20:16:52.029Z,96678.47
2017-12-10T20:19:20.882Z,96689.35
2017-12-10T20:21:50.544Z,96688.58
2017-12-10T20:24:19.585Z,96690.83
2017-12-10T20:26:48.894Z,96667.00
2017-12-10T20:29:19.693Z,96701.25
2017-12-10T20:31:48.717Z,96693.74
2017-12-10T20:34:17.480Z,96692.79
2017-12-10T20:36:46.621Z,96714.47
2017-12-10T20:39:15.947Z,96728.58
2017-12-10T20:41:44.906Z,96762.45
2017-12-10T20:44:14.499Z,96796.86
2017-12-10T20:46:43.796Z,96801.23
2017-12-10T20:49:12.911Z,96804.39
2017-12-10T20:51:42.054Z,96795.94
2017-12-10T20:54:10.595Z,96813.33
2017-12-10T20:56:40.211Z,96816.03
2017-12-10T20:59:09.053Z,96816.92
2017-12-10T21:01:37.699Z,96832.16
2017-12-10T21:04:06.744Z,96824.30
2017-12-10T21:06:35.567Z,96836.37
2017-12-10T21:09:05.089Z,96836.16
2017-12-10T21:11:34.284Z,96842.76
2017-12-10T21:14:03.486Z,96844.00
2017-12-10T21:16:33.136Z,96866.35
2017-12-10T21:19:02.235Z,96884.06
2017-12-10T21:21:32.602Z,96888.19
2017-12-10T21:24:00.668Z,96904.63
2017-12-10T21:26:29.639Z,96895.77
2017-12-10T21:28:58.598Z,96906.63
2017-12-10T21:31:27.597Z,96911.56
2017-12-10T21:33:55.686Z,96932.84
2017-12-10T21:36:22.802Z,96930.92
2017-12-10T21:38:50.451Z,96941.64
2017-12-10T21:41:17.346Z,96955.67
2017-12-10T21:43:44.205Z,96985.60
2017-12-10T21:46:11.426Z,96967.75
2017-12-10T21:48:38.495Z,96977.27
2017-12-10T21:51:05.392Z,96976.81
2017-12-10T21:53:32.318Z,97007.91
2017-12-10T21:55:59.190Z,96999.12
2017-12-10T21:58:26.105Z,96997.87
2017-12-10T22:00:54.059Z,97005.20
2017-12-10T22:03:21.364Z,97021.58
2017-12-10T22:05:49.151Z,97035.64
2017-12-10T22:08:16.050Z,97038.14
2017-12-10T22:10:42.956Z,97039.27
2017-12-10T22:13:09.795Z,97054.38
2017-12-10T22:15:36.714Z,97059.52
2017-12-10T22:18:03.549Z,97071.94
2017-12-10T22:20:30.439Z,97078.73
2017-12-10T22:22:57.376Z,97069.97
2017-12-10T22:25:25.350Z,97100.76
2017-12-10T22:27:52.276Z,97105.18
2017-12-10T22:30:19.174Z,97119.33
2017-12-10T22:32:46.190Z,97115.53
2017-12-10T22:35:13.111Z,97134.98
2017-12-10T22:37:39.978Z,97126.30
2017-12-10T22:40:07.580Z,97128.49
2017-12-10T22:42:35.245Z,97151.37
2017-12-10T22:45:02.292Z,97161.59
2017-12-10T22:47:30.140Z,97165.87
2017-12-10T22:49:57.274Z,97180.33
2017-12-10T22:52:24.820Z,97194.01
2017-12-10T22:54:51.818Z,97216.31
2017-12-10T22:57:19.329Z,97209.28
2017-12-10T22:59:46.155Z,97224.82
2017-12-10T23:02:13.760Z,97223.65
2017-12-10T23:04:40.606Z,97230.48
2017-12-10T23:07:07.661Z,97239.29
2017-12-10T23:09:34.435Z,97227.14
2017-12-10T23:12:01.278Z,97236.75
2017-12-10T23:14:40.426Z,97246.41
2017-12-10T23:17:07.710Z,97252.70
2017-12-10T23:19:36.641Z,97253.98
2017-12-10T23:22:03.446Z,97254.73
2017-12-10T23:24:30.259Z,97272.73
2017-12-10T23:26:58.478Z,97292.05
2017-12-10T23:29:25.827Z,97309.70
2017-12-10T23:31:52.907Z,97323.52
2017-12-10T23:34:21.707Z,97319.80
2017-12-10T23:36:49.765Z,97332.33
2017-12-10T23:39:16.894Z,97344.29
2017-12-10T23:41:43.663Z,97365.84
2017-12-10T23:44:10.445Z,97372.63
2017-12-10T23:46:37.269Z,97374.56
2017-12-10T23:49:04.049Z,97386.48
2017-12-10T23:51:31.680Z,97374.69
2017-12-10T23:53:58.676Z,97388.29
2017-12-10T23:56:26.937Z,97397.05
2017-12-10T23:58:55.552Z,97402.39
